sensor_id;sensor_type;location;lat;lon;timestamp;pressure;altitude;pressure_sealevel;temperature;humidity
78073;BME280;67281;48.770;11.440;2023-07-20T00:00:56;96980.03;;;26.47;44.21
78073;BME280;67281;48.770;11.440;2023-07-20T00:03:23;96984.16;;;26.49;44.37
78073;BME280;67281;48.770;11.440;2023-07-20T00:05:52;96981.06;;;26.46;44.30
78073;BME280;67281;48.770;11.440;2023-07-20T00:08:18;96977.56;;;26.45;44.60
78073;BME280;67281;48.770;11.440;2023-07-20T00:10:45;96974.28;;;26.43;44.45
78073;BME280;67281;48.770;11.440;2023-07-20T00:13:12;96975.09;;;26.44;43.78
78073;BME280;67281;48.770;11.440;2023-07-20T00:15:39;96976.75;;;26.45;44.39
78073;BME280;67281;48.770;11.440;2023-07-20T00:18:06;96976.97;;;26.43;43.98
78073;BME280;67281;48.770;11.440;2023-07-20T00:20:33;96978.59;;;26.44;44.62
78073;BME280;67281;48.770;11.440;2023-07-20T00:23:01;96972.41;;;26.44;44.32
78073;BME280;67281;48.770;11.440;2023-07-20T00:25:28;96967.03;;;26.44;44.72
78073;BME280;67281;48.770;11.440;2023-07-20T00:27:54;96970.97;;;26.41;44.47
78073;BME280;67281;48.770;11.440;2023-07-20T00:30:21;96979.25;;;26.40;44.69
78073;BME280;67281;48.770;11.440;2023-07-20T00:32:48;96980.91;;;26.41;44.18
78073;BME280;67281;48.770;11.440;2023-07-20T00:35:15;96976.56;;;26.40;45.02
78073;BME280;67281;48.770;11.440;2023-07-20T00:37:42;96966.84;;;26.39;45.07
78073;BME280;67281;48.770;11.440;2023-07-20T00:40:09;96972.22;;;26.39;44.57
78073;BME280;67281;48.770;11.440;2023-07-20T00:42:36;96967.66;;;26.39;44.52
78073;BME280;67281;48.770;11.440;2023-07-20T00:45:03;96975.13;;;26.37;44.69
78073;BME280;67281;48.770;11.440;2023-07-20T00:47:32;96982.56;;;26.35;45.00
78073;BME280;67281;48.770;11.440;2023-07-20T00:49:59;96972.66;;;26.36;44.96
78073;BME280;67281;48.770;11.440;2023-07-20T00:52:27;96975.34;;;26.36;44.43
78073;BME280;67281;48.770;11.440;2023-07-20T00:54:55;96979.50;;;26.32;45.07
78073;BME280;67281;48.770;11.440;2023-07-20T00:57:24;96974.13;;;26.32;45.23
78073;BME280;67281;48.770;11.440;2023-07-20T00:59:52;96975.13;;;26.31;44.73
78073;BME280;67281;48.770;11.440;2023-07-20T01:02:19;96972.25;;;26.32;44.86
78073;BME280;67281;48.770;11.440;2023-07-20T01:04:46;96981.13;;;26.33;44.95
78073;BME280;67281;48.770;11.440;2023-07-20T01:07:42;96988.38;;;26.32;44.95
78073;BME280;67281;48.770;11.440;2023-07-20T01:10:31;96992.09;;;26.31;44.88
78073;BME280;67281;48.770;11.440;2023-07-20T01:13:00;96985.25;;;26.29;45.10
78073;BME280;67281;48.770;11.440;2023-07-20T01:15:28;96991.25;;;26.31;44.82
78073;BME280;67281;48.770;11.440;2023-07-20T01:17:55;96985.25;;;26.29;44.95
78073;BME280;67281;48.770;11.440;2023-07-20T01:20:22;96985.25;;;26.29;45.29
78073;BME280;67281;48.770;11.440;2023-07-20T01:23:19;96977.63;;;26.26;44.79
78073;BME280;67281;48.770;11.440;2023-07-20T01:29:11;96981.34;;;26.25;45.05
78073;BME280;67281;48.770;11.440;2023-07-20T01:31:44;96978.66;;;26.25;44.99
78073;BME280;67281;48.770;11.440;2023-07-20T01:34:12;96968.13;;;26.23;45.04
78073;BME280;67281;48.770;11.440;2023-07-20T01:36:42;96975.34;;;26.23;45.26
78073;BME280;67281;48.770;11.440;2023-07-20T01:39:10;96967.28;;;26.23;44.47
78073;BME280;67281;48.770;11.440;2023-07-20T01:41:38;96977.44;;;26.20;44.90
78073;BME280;67281;48.770;11.440;2023-07-20T01:44:05;96968.53;;;26.20;44.55
78073;BME280;67281;48.770;11.440;2023-07-20T01:46:32;96967.72;;;26.19;45.16
78073;BME280;67281;48.770;11.440;2023-07-20T01:48:59;96975.16;;;26.17;45.10
78073;BME280;67281;48.770;11.440;2023-07-20T01:51:26;96978.88;;;26.16;45.13
78073;BME280;67281;48.770;11.440;2023-07-20T01:53:53;96980.13;;;26.14;44.61
78073;BME280;67281;48.770;11.440;2023-07-20T01:56:19;96982.00;;;26.13;44.55
78073;BME280;67281;48.770;11.440;2023-07-20T01:58:46;96986.75;;;26.11;45.15
78073;BME280;67281;48.770;11.440;2023-07-20T02:01:13;96991.53;;;26.09;44.96
78073;BME280;67281;48.770;11.440;2023-07-20T02:03:40;96985.94;;;26.04;44.63
78073;BME280;67281;48.770;11.440;2023-07-20T02:06:07;96994.44;;;26.01;45.16
78073;BME280;67281;48.770;11.440;2023-07-20T02:08:34;96990.09;;;26.00;44.69
78073;BME280;67281;48.770;11.440;2023-07-20T02:11:01;96995.47;;;26.00;44.93
78073;BME280;67281;48.770;11.440;2023-07-20T02:13:28;96987.81;;;26.04;44.69
78073;BME280;67281;48.770;11.440;2023-07-20T02:15:54;96989.25;;;26.06;44.80
78073;BME280;67281;48.770;11.440;2023-07-20T02:18:21;96984.09;;;26.05;44.83
78073;BME280;67281;48.770;11.440;2023-07-20T02:20:48;96984.91;;;26.05;45.35
78073;BME280;67281;48.770;11.440;2023-07-20T02:23:15;96995.66;;;26.05;44.71
78073;BME280;67281;48.770;11.440;2023-07-20T02:25:42;96987.59;;;26.05;44.99
78073;BME280;67281;48.770;11.440;2023-07-20T02:28:13;96992.16;;;26.05;45.25
78073;BME280;67281;48.770;11.440;2023-07-20T02:30:40;96991.31;;;26.04;45.01
78073;BME280;67281;48.770;11.440;2023-07-20T02:33:07;96985.13;;;26.04;44.95
78073;BME280;67281;48.770;11.440;2023-07-20T02:35:34;96990.72;;;26.02;44.70
78073;BME280;67281;48.770;11.440;2023-07-20T02:38:01;96992.78;;;26.00;45.63
78073;BME280;67281;48.770;11.440;2023-07-20T02:40:27;96994.69;;;26.00;45.44
78073;BME280;67281;48.770;11.440;2023-07-20T02:42:54;96996.34;;;25.94;45.38
78073;BME280;67281;48.770;11.440;2023-07-20T02:45:21;97001.09;;;25.92;45.35
78073;BME280;67281;48.770;11.440;2023-07-20T02:47:48;96998.00;;;25.95;45.18
78073;BME280;67281;48.770;11.440;2023-07-20T02:50:15;96998.00;;;25.95;45.04
78073;BME280;67281;48.770;11.440;2023-07-20T02:52:41;96990.97;;;25.94;45.02
78073;BME280;67281;48.770;11.440;2023-07-20T02:55:09;96990.97;;;25.94;45.56
78073;BME280;67281;48.770;11.440;2023-07-20T02:57:36;96992.81;;;25.94;45.57
78073;BME280;67281;48.770;11.440;2023-07-20T03:00:03;96992.22;;;25.92;45.26
78073;BME280;67281;48.770;11.440;2023-07-20T03:02:33;97001.31;;;25.91;44.97
78073;BME280;67281;48.770;11.440;2023-07-20T03:05:00;97009.78;;;25.88;44.95
78073;BME280;67281;48.770;11.440;2023-07-20T03:07:29;97003.59;;;25.87;44.82
78073;BME280;67281;48.770;11.440;2023-07-20T03:09:56;97016.59;;;25.83;44.85
78073;BME280;67281;48.770;11.440;2023-07-20T03:12:22;97009.38;;;25.84;44.68
78073;BME280;67281;48.770;11.440;2023-07-20T03:14:51;97009.78;;;25.81;44.49
78073;BME280;67281;48.770;11.440;2023-07-20T03:17:17;97011.25;;;25.77;44.80
78073;BME280;67281;48.770;11.440;2023-07-20T03:19:44;97009.59;;;25.76;44.98
78073;BME280;67281;48.770;11.440;2023-07-20T03:22:11;97004.22;;;25.69;44.37
78073;BME280;67281;48.770;11.440;2023-07-20T03:24:38;97011.47;;;25.69;45.04
78073;BME280;67281;48.770;11.440;2023-07-20T03:27:05;97010.84;;;25.73;45.22
78073;BME280;67281;48.770;11.440;2023-07-20T03:29:32;97019.31;;;25.70;44.64
78073;BME280;67281;48.770;11.440;2023-07-20T03:31:59;97021.97;;;25.64;44.45
78073;BME280;67281;48.770;11.440;2023-07-20T03:34:26;97022.81;;;25.64;44.59
78073;BME280;67281;48.770;11.440;2023-07-20T03:36:53;97023.44;;;25.66;44.38
78073;BME280;67281;48.770;11.440;2023-07-20T03:39:22;97021.38;;;25.68;44.34
78073;BME280;67281;48.770;11.440;2023-07-20T03:41:49;97022.19;;;25.69;44.60
78073;BME280;67281;48.770;11.440;2023-07-20T03:44:16;97022.59;;;25.59;44.78
78073;BME280;67281;48.770;11.440;2023-07-20T03:46:46;97031.25;;;25.54;44.31
78073;BME280;67281;48.770;11.440;2023-07-20T03:49:13;97025.25;;;25.52;44.88
78073;BME280;67281;48.770;11.440;2023-07-20T03:51:39;97031.88;;;25.50;44.18
78073;BME280;67281;48.770;11.440;2023-07-20T03:54:06;97033.31;;;25.52;44.29
78073;BME280;67281;48.770;11.440;2023-07-20T03:56:34;97034.56;;;25.57;44.28
78073;BME280;67281;48.770;11.440;2023-07-20T03:59:02;97040.34;;;25.53;44.62
78073;BME280;67281;48.770;11.440;2023-07-20T04:01:29;97041.78;;;25.49;44.41
78073;BME280;67281;48.770;11.440;2023-07-20T04:03:56;97047.34;;;25.41;44.09
78073;BME280;67281;48.770;11.440;2023-07-20T04:06:23;97042.41;;;25.38;43.78
78073;BME280;67281;48.770;11.440;2023-07-20T04:08:50;97048.38;;;25.40;44.05
78073;BME280;67281;48.770;11.440;2023-07-20T04:11:17;97049.81;;;25.43;44.46
78073;BME280;67281;48.770;11.440;2023-07-20T04:13:43;97049.63;;;25.38;44.06
78073;BME280;67281;48.770;11.440;2023-07-20T04:16:10;97053.34;;;25.43;44.24
78073;BME280;67281;48.770;11.440;2023-07-20T04:18:37;97056.84;;;25.44;43.53
78073;BME280;67281;48.770;11.440;2023-07-20T04:21:04;97056.44;;;25.47;43.79
78073;BME280;67281;48.770;11.440;2023-07-20T04:23:31;97059.31;;;25.45;44.00
78073;BME280;67281;48.770;11.440;2023-07-20T04:25:58;97059.31;;;25.45;44.13
78073;BME280;67281;48.770;11.440;2023-07-20T04:28:25;97073.56;;;25.46;45.07
78073;BME280;67281;48.770;11.440;2023-07-20T04:30:52;97077.69;;;25.42;45.31
78073;BME280;67281;48.770;11.440;2023-07-20T04:33:19;97065.50;;;25.33;44.94
78073;BME280;67281;48.770;11.440;2023-07-20T04:35:53;97074.38;;;25.33;44.95
78073;BME280;67281;48.770;11.440;2023-07-20T04:38:21;97062.00;;;25.32;44.96
78073;BME280;67281;48.770;11.440;2023-07-20T04:40:50;97069.81;;;25.27;44.98
78073;BME280;67281;48.770;11.440;2023-07-20T04:43:22;97065.28;;;25.14;43.65
78073;BME280;67281;48.770;11.440;2023-07-20T04:45:48;97059.09;;;25.07;43.83
78073;BME280;67281;48.770;11.440;2023-07-20T04:48:17;97072.28;;;25.02;43.93
78073;BME280;67281;48.770;11.440;2023-07-20T04:50:45;97071.84;;;24.99;43.57
78073;BME280;67281;48.770;11.440;2023-07-20T04:53:12;97074.75;;;24.97;42.98
78073;BME280;67281;48.770;11.440;2023-07-20T04:55:40;97082.59;;;24.99;43.51
78073;BME280;67281;48.770;11.440;2023-07-20T04:58:07;97083.81;;;24.96;42.89
78073;BME280;67281;48.770;11.440;2023-07-20T05:00:34;97083.59;;;24.98;43.33
78073;BME280;67281;48.770;11.440;2023-07-20T05:03:01;97087.13;;;24.98;43.52
78073;BME280;67281;48.770;11.440;2023-07-20T05:05:28;97088.50;;;24.94;43.10
78073;BME280;67281;48.770;11.440;2023-07-20T05:07:55;97094.13;;;24.99;43.27
78073;BME280;67281;48.770;11.440;2023-07-20T05:10:21;97094.75;;;25.01;43.20
78073;BME280;67281;48.770;11.440;2023-07-20T05:12:48;97093.94;;;25.01;42.78
78073;BME280;67281;48.770;11.440;2023-07-20T05:15:15;97097.38;;;24.88;42.78
78073;BME280;67281;48.770;11.440;2023-07-20T05:17:42;97096.31;;;24.82;43.38
78073;BME280;67281;48.770;11.440;2023-07-20T05:20:09;97097.75;;;24.85;42.80
78073;BME280;67281;48.770;11.440;2023-07-20T05:22:39;97099.44;;;24.93;43.18
78073;BME280;67281;48.770;11.440;2023-07-20T05:25:07;97100.03;;;24.88;42.38
78073;BME280;67281;48.770;11.440;2023-07-20T05:27:36;97095.09;;;24.85;43.07
78073;BME280;67281;48.770;11.440;2023-07-20T05:30:04;97092.59;;;24.83;42.91
78073;BME280;67281;48.770;11.440;2023-07-20T05:32:31;97091.38;;;24.86;42.28
78073;BME280;67281;48.770;11.440;2023-07-20T05:34:58;97084.78;;;24.88;43.22
78073;BME280;67281;48.770;11.440;2023-07-20T05:37:25;97093.19;;;24.79;42.77
78073;BME280;67281;48.770;11.440;2023-07-20T05:39:52;97093.63;;;24.82;42.65
78073;BME280;67281;48.770;11.440;2023-07-20T05:42:19;97096.72;;;24.79;42.94
78073;BME280;67281;48.770;11.440;2023-07-20T05:44:46;97096.88;;;24.71;42.73
78073;BME280;67281;48.770;11.440;2023-07-20T05:47:14;97102.00;;;24.66;42.79
78073;BME280;67281;48.770;11.440;2023-07-20T05:49:41;97105.94;;;24.70;42.98
78073;BME280;67281;48.770;11.440;2023-07-20T05:52:08;97097.72;;;24.72;42.14
78073;BME280;67281;48.770;11.440;2023-07-20T05:54:35;97105.16;;;24.76;42.40
78073;BME280;67281;48.770;11.440;2023-07-20T05:57:04;97111.53;;;24.75;42.46
78073;BME280;67281;48.770;11.440;2023-07-20T05:59:31;97112.75;;;24.73;42.67
78073;BME280;67281;48.770;11.440;2023-07-20T06:01:58;97104.28;;;24.69;42.47
78073;BME280;67281;48.770;11.440;2023-07-20T06:04:25;97097.09;;;24.76;42.72
78073;BME280;67281;48.770;11.440;2023-07-20T06:06:52;97107.63;;;24.78;42.50
78073;BME280;67281;48.770;11.440;2023-07-20T06:09:19;97109.09;;;24.80;42.81
78073;BME280;67281;48.770;11.440;2023-07-20T06:11:45;97109.09;;;24.80;42.69
78073;BME280;67281;48.770;11.440;2023-07-20T06:14:12;97109.25;;;24.72;42.50
78073;BME280;67281;48.770;11.440;2023-07-20T06:16:39;97102.00;;;24.66;43.16
78073;BME280;67281;48.770;11.440;2023-07-20T06:19:06;97108.03;;;24.75;43.21
78073;BME280;67281;48.770;11.440;2023-07-20T06:21:33;97105.31;;;24.68;43.03
78073;BME280;67281;48.770;11.440;2023-07-20T06:24:00;97109.47;;;24.71;42.66
78073;BME280;67281;48.770;11.440;2023-07-20T06:26:27;97116.91;;;24.75;42.77
78073;BME280;67281;48.770;11.440;2023-07-20T06:28:56;97121.22;;;24.76;42.69
78073;BME280;67281;48.770;11.440;2023-07-20T06:31:22;97116.50;;;24.78;43.10
78073;BME280;67281;48.770;11.440;2023-07-20T06:33:49;97119.97;;;24.72;42.76
78073;BME280;67281;48.770;11.440;2023-07-20T06:36:17;97122.47;;;24.74;43.06
78073;BME280;67281;48.770;11.440;2023-07-20T06:38:44;97123.69;;;24.71;42.88
78073;BME280;67281;48.770;11.440;2023-07-20T06:41:31;97115.81;;;24.63;42.98
78073;BME280;67281;48.770;11.440;2023-07-20T06:44:02;97117.28;;;24.66;42.77
78073;BME280;67281;48.770;11.440;2023-07-20T06:46:29;97110.72;;;24.75;42.60
78073;BME280;67281;48.770;11.440;2023-07-20T06:48:56;97114.22;;;24.75;42.77
78073;BME280;67281;48.770;11.440;2023-07-20T06:51:26;97107.84;;;24.76;42.65
78073;BME280;67281;48.770;11.440;2023-07-20T06:53:53;97111.34;;;24.77;42.59
78073;BME280;67281;48.770;11.440;2023-07-20T06:56:20;97120.59;;;24.74;42.83
78073;BME280;67281;48.770;11.440;2023-07-20T06:58:51;97113.38;;;24.68;42.48
78073;BME280;67281;48.770;11.440;2023-07-20T07:01:18;97115.63;;;24.65;42.78
78073;BME280;67281;48.770;11.440;2023-07-20T07:03:45;97105.94;;;24.70;43.37
78073;BME280;67281;48.770;11.440;2023-07-20T07:06:12;97101.84;;;24.74;43.28
78073;BME280;67281;48.770;11.440;2023-07-20T07:08:39;97114.84;;;24.77;43.27
78073;BME280;67281;48.770;11.440;2023-07-20T07:11:06;97108.44;;;24.72;43.38
78073;BME280;67281;48.770;11.440;2023-07-20T07:13:33;97108.84;;;24.75;42.86
78073;BME280;67281;48.770;11.440;2023-07-20T07:16:01;97109.28;;;24.79;42.95
78073;BME280;67281;48.770;11.440;2023-07-20T07:18:28;97120.19;;;24.71;42.95
78073;BME280;67281;48.770;11.440;2023-07-20T07:20:56;97111.72;;;24.67;43.79
78073;BME280;67281;48.770;11.440;2023-07-20T07:23:28;97110.47;;;24.70;43.48
78073;BME280;67281;48.770;11.440;2023-07-20T07:25:55;97117.50;;;24.71;43.96
78073;BME280;67281;48.770;11.440;2023-07-20T07:28:22;97119.56;;;24.69;43.83
78073;BME280;67281;48.770;11.440;2023-07-20T07:30:49;97122.84;;;24.71;43.72
78073;BME280;67281;48.770;11.440;2023-07-20T07:33:16;97115.44;;;24.73;43.64
78073;BME280;67281;48.770;11.440;2023-07-20T07:35:43;97117.72;;;24.76;43.90
78073;BME280;67281;48.770;11.440;2023-07-20T07:38:10;97122.88;;;24.77;43.60
78073;BME280;67281;48.770;11.440;2023-07-20T07:40:58;97124.94;;;24.75;44.21
78073;BME280;67281;48.770;11.440;2023-07-20T07:43:25;97119.56;;;24.75;44.28
78073;BME280;67281;48.770;11.440;2023-07-20T07:45:54;97118.31;;;24.71;44.30
78073;BME280;67281;48.770;11.440;2023-07-20T07:48:21;97120.81;;;24.73;43.55
78073;BME280;67281;48.770;11.440;2023-07-20T07:50:48;97123.72;;;24.78;43.91
78073;BME280;67281;48.770;11.440;2023-07-20T07:53:16;97119.19;;;24.78;43.82
78073;BME280;67281;48.770;11.440;2023-07-20T07:55:43;97113.81;;;24.78;43.52
78073;BME280;67281;48.770;11.440;2023-07-20T07:58:10;97119.19;;;24.78;43.62
78073;BME280;67281;48.770;11.440;2023-07-20T08:00:37;97119.16;;;24.72;44.26
78073;BME280;67281;48.770;11.440;2023-07-20T08:03:04;97115.44;;;24.73;43.62
78073;BME280;67281;48.770;11.440;2023-07-20T08:05:30;97120.22;;;24.77;43.63
78073;BME280;67281;48.770;11.440;2023-07-20T08:07:57;97114.44;;;24.80;43.29
78073;BME280;67281;48.770;11.440;2023-07-20T08:10:24;97122.88;;;24.77;43.32
78073;BME280;67281;48.770;11.440;2023-07-20T08:12:51;97116.31;;;24.80;43.70
78073;BME280;67281;48.770;11.440;2023-07-20T08:15:21;97118.34;;;24.78;43.82
78073;BME280;67281;48.770;11.440;2023-07-20T08:17:47;97125.38;;;24.79;43.32
78073;BME280;67281;48.770;11.440;2023-07-20T08:20:16;97120.84;;;24.79;43.29
78073;BME280;67281;48.770;11.440;2023-07-20T08:22:44;97118.78;;;24.81;43.43
78073;BME280;67281;48.770;11.440;2023-07-20T08:25:13;97121.88;;;24.85;43.50
78073;BME280;67281;48.770;11.440;2023-07-20T08:27:40;97123.16;;;24.89;43.51
78073;BME280;67281;48.770;11.440;2023-07-20T08:30:08;97120.66;;;24.87;43.81
78073;BME280;67281;48.770;11.440;2023-07-20T08:32:35;97131.63;;;24.93;43.91
78073;BME280;67281;48.770;11.440;2023-07-20T08:35:02;97121.09;;;24.91;43.17
78073;BME280;67281;48.770;11.440;2023-07-20T08:37:29;97117.19;;;24.94;43.49
78073;BME280;67281;48.770;11.440;2023-07-20T08:39:55;97120.50;;;24.96;43.76
78073;BME280;67281;48.770;11.440;2023-07-20T08:42:22;97122.19;;;24.97;43.32
78073;BME280;67281;48.770;11.440;2023-07-20T08:44:50;97114.97;;;24.97;44.00
78073;BME280;67281;48.770;11.440;2023-07-20T08:47:20;97117.25;;;25.00;43.92
78073;BME280;67281;48.770;11.440;2023-07-20T08:49:50;97111.44;;;24.97;43.97
78073;BME280;67281;48.770;11.440;2023-07-20T08:52:18;97100.31;;;25.00;43.71
78073;BME280;67281;48.770;11.440;2023-07-20T08:54:44;97110.66;;;25.03;43.00
78073;BME280;67281;48.770;11.440;2023-07-20T08:57:13;97114.34;;;25.02;43.36
78073;BME280;67281;48.770;11.440;2023-07-20T08:59:41;97104.03;;;24.99;43.78
78073;BME280;67281;48.770;11.440;2023-07-20T09:02:11;97105.69;;;25.00;43.11
78073;BME280;67281;48.770;11.440;2023-07-20T09:04:45;97100.53;;;25.05;43.48
78073;BME280;67281;48.770;11.440;2023-07-20T09:07:12;97108.19;;;25.08;43.24
78073;BME280;67281;48.770;11.440;2023-07-20T09:09:40;97101.59;;;25.10;43.34
78073;BME280;67281;48.770;11.440;2023-07-20T09:12:13;97106.13;;;25.10;43.64
78073;BME280;67281;48.770;11.440;2023-07-20T09:14:43;97107.34;;;25.07;42.88
78073;BME280;67281;48.770;11.440;2023-07-20T09:17:14;97105.31;;;25.09;43.02
78073;BME280;67281;48.770;11.440;2023-07-20T09:19:47;97108.22;;;25.14;42.96
78073;BME280;67281;48.770;11.440;2023-07-20T09:22:14;97098.31;;;25.15;42.84
78073;BME280;67281;48.770;11.440;2023-07-20T09:24:41;97102.44;;;25.17;42.80
78073;BME280;67281;48.770;11.440;2023-07-20T09:27:10;97099.56;;;25.19;43.01
78073;BME280;67281;48.770;11.440;2023-07-20T09:29:51;97102.84;;;25.21;43.23
78073;BME280;67281;48.770;11.440;2023-07-20T09:32:19;97106.56;;;25.20;42.09
78073;BME280;67281;48.770;11.440;2023-07-20T09:34:50;97101.59;;;25.17;42.49
78073;BME280;67281;48.770;11.440;2023-07-20T09:37:22;97109.25;;;25.20;42.38
78073;BME280;67281;48.770;11.440;2023-07-20T09:39:52;97109.03;;;25.21;41.87
78073;BME280;67281;48.770;11.440;2023-07-20T09:42:26;97103.88;;;25.20;41.81
78073;BME280;67281;48.770;11.440;2023-07-20T09:44:56;97103.88;;;25.20;42.76
78073;BME280;67281;48.770;11.440;2023-07-20T09:47:24;97098.53;;;25.20;42.96
78073;BME280;67281;48.770;11.440;2023-07-20T09:49:58;97101.81;;;25.22;43.04
78073;BME280;67281;48.770;11.440;2023-07-20T09:52:30;97102.44;;;25.24;42.71
78073;BME280;67281;48.770;11.440;2023-07-20T09:55:01;97098.31;;;25.28;43.00
78073;BME280;67281;48.770;11.440;2023-07-20T09:57:29;97095.41;;;25.30;42.08
78073;BME280;67281;48.770;11.440;2023-07-20T09:59:56;97094.19;;;25.32;42.26
78073;BME280;67281;48.770;11.440;2023-07-20T10:02:45;97088.00;;;25.32;42.47
78073;BME280;67281;48.770;11.440;2023-07-20T10:05:13;97085.09;;;25.33;41.99
78073;BME280;67281;48.770;11.440;2023-07-20T10:07:47;97095.84;;;25.33;42.24
78073;BME280;67281;48.770;11.440;2023-07-20T10:10:16;97097.50;;;25.34;41.17
78073;BME280;67281;48.770;11.440;2023-07-20T10:12:48;97089.22;;;25.29;42.28
78073;BME280;67281;48.770;11.440;2023-07-20T10:15:36;97100.97;;;25.28;42.69
78073;BME280;67281;48.770;11.440;2023-07-20T10:18:12;97089.44;;;25.28;42.91
78073;BME280;67281;48.770;11.440;2023-07-20T10:20:41;97083.44;;;25.26;42.12
78073;BME280;67281;48.770;11.440;2023-07-20T10:23:29;97090.47;;;25.27;41.23
78073;BME280;67281;48.770;11.440;2023-07-20T10:25:57;97081.59;;;25.26;42.11
78073;BME280;67281;48.770;11.440;2023-07-20T10:28:27;97087.56;;;25.28;41.99
78073;BME280;67281;48.770;11.440;2023-07-20T10:30:54;97078.91;;;25.26;42.39
78073;BME280;67281;48.770;11.440;2023-07-20T10:33:21;97082.66;;;25.25;42.02
78073;BME280;67281;48.770;11.440;2023-07-20T10:38:19;97075.38;;;25.26;41.84
78073;BME280;67281;48.770;11.440;2023-07-20T10:40:56;97065.09;;;25.16;40.77
78073;BME280;67281;48.770;11.440;2023-07-20T10:43:22;97066.75;;;25.17;40.54
78073;BME280;67281;48.770;11.440;2023-07-20T10:45:52;97066.13;;;25.21;40.19
78073;BME280;67281;48.770;11.440;2023-07-20T10:48:21;97061.38;;;25.17;40.38
78073;BME280;67281;48.770;11.440;2023-07-20T10:51:08;97066.31;;;25.13;40.08
78073;BME280;67281;48.770;11.440;2023-07-20T10:53:35;97062.63;;;25.14;40.36
78073;BME280;67281;48.770;11.440;2023-07-20T10:56:13;97060.34;;;25.18;40.21
78073;BME280;67281;48.770;11.440;2023-07-20T10:58:41;97063.66;;;25.20;40.05
78073;BME280;67281;48.770;11.440;2023-07-20T11:01:13;97068.81;;;25.21;39.35
78073;BME280;67281;48.770;11.440;2023-07-20T11:03:42;97065.09;;;25.23;40.04
78073;BME280;67281;48.770;11.440;2023-07-20T11:09:11;97048.56;;;25.26;39.63
78073;BME280;67281;48.770;11.440;2023-07-20T11:11:46;97068.16;;;25.26;39.92
78073;BME280;67281;48.770;11.440;2023-07-20T11:14:24;97051.69;;;25.23;39.46
78073;BME280;67281;48.770;11.440;2023-07-20T11:16:53;97043.66;;;25.23;39.37
78073;BME280;67281;48.770;11.440;2023-07-20T11:21:57;97042.19;;;25.27;39.60
78073;BME280;67281;48.770;11.440;2023-07-20T11:24:27;97051.47;;;25.31;39.92
78073;BME280;67281;48.770;11.440;2023-07-20T11:26:54;97054.56;;;25.34;39.62
78073;BME280;67281;48.770;11.440;2023-07-20T11:29:22;97050.66;;;25.37;40.30
78073;BME280;67281;48.770;11.440;2023-07-20T11:31:57;97046.50;;;25.34;39.46
78073;BME280;67281;48.770;11.440;2023-07-20T11:34:30;97044.03;;;25.33;39.12
78073;BME280;67281;48.770;11.440;2023-07-20T11:36:57;97047.53;;;25.33;39.19
78073;BME280;67281;48.770;11.440;2023-07-20T11:39:28;97039.09;;;25.36;39.86
78073;BME280;67281;48.770;11.440;2023-07-20T11:41:57;97033.94;;;25.41;39.88
78073;BME280;67281;48.770;11.440;2023-07-20T11:44:26;97024.84;;;25.42;40.07
78073;BME280;67281;48.770;11.440;2023-07-20T11:49:35;97017.41;;;25.51;40.21
78073;BME280;67281;48.770;11.440;2023-07-20T11:52:05;97022.78;;;25.51;40.15
78073;BME280;67281;48.770;11.440;2023-07-20T11:54:34;97016.19;;;25.53;40.26
78073;BME280;67281;48.770;11.440;2023-07-20T11:57:01;97023.19;;;25.54;39.82
78073;BME280;67281;48.770;11.440;2023-07-20T11:59:28;97017.84;;;25.54;40.13
78073;BME280;67281;48.770;11.440;2023-07-20T12:01:55;97011.63;;;25.54;39.69
78073;BME280;67281;48.770;11.440;2023-07-20T12:04:23;97010.81;;;25.53;39.09
78073;BME280;67281;48.770;11.440;2023-07-20T12:06:50;97006.69;;;25.51;39.25
78073;BME280;67281;48.770;11.440;2023-07-20T12:09:17;97001.31;;;25.51;38.86
78073;BME280;67281;48.770;11.440;2023-07-20T12:11:44;97005.44;;;25.53;39.07
78073;BME280;67281;48.770;11.440;2023-07-20T12:14:14;96997.59;;;25.59;39.02
78073;BME280;67281;48.770;11.440;2023-07-20T12:16:43;97004.63;;;25.60;39.59
78073;BME280;67281;48.770;11.440;2023-07-20T12:19:12;96998.22;;;25.61;39.75
78073;BME280;67281;48.770;11.440;2023-07-20T12:21:40;96985.63;;;25.61;39.56
78073;BME280;67281;48.770;11.440;2023-07-20T12:24:10;96980.03;;;25.63;38.61
78073;BME280;67281;48.770;11.440;2023-07-20T12:26:37;96988.75;;;25.65;37.87
78073;BME280;67281;48.770;11.440;2023-07-20T12:29:04;96992.25;;;25.65;38.94
78073;BME280;67281;48.770;11.440;2023-07-20T12:31:36;96973.66;;;25.70;38.99
78073;BME280;67281;48.770;11.440;2023-07-20T12:34:03;96976.56;;;25.69;38.25
78073;BME280;67281;48.770;11.440;2023-07-20T12:36:30;96969.13;;;25.71;38.96
78073;BME280;67281;48.770;11.440;2023-07-20T12:38:58;96975.09;;;25.73;38.41
78073;BME280;67281;48.770;11.440;2023-07-20T12:41:25;96974.91;;;25.74;39.44
78073;BME280;67281;48.770;11.440;2023-07-20T12:43:51;96970.75;;;25.78;39.00
78073;BME280;67281;48.770;11.440;2023-07-20T12:46:20;96978.00;;;25.78;39.18
78073;BME280;67281;48.770;11.440;2023-07-20T12:48:47;96973.63;;;25.83;39.06
78073;BME280;67281;48.770;11.440;2023-07-20T12:51:15;96960.63;;;25.80;38.24
78073;BME280;67281;48.770;11.440;2023-07-20T12:53:42;96970.13;;;25.83;38.19
78073;BME280;67281;48.770;11.440;2023-07-20T12:56:09;96963.31;;;25.87;38.15
78073;BME280;67281;48.770;11.440;2023-07-20T12:58:38;96963.50;;;25.92;38.04
78073;BME280;67281;48.770;11.440;2023-07-20T13:01:05;96965.16;;;25.93;38.01
78073;BME280;67281;48.770;11.440;2023-07-20T13:03:32;96964.53;;;25.91;38.21
78073;BME280;67281;48.770;11.440;2023-07-20T13:06:03;96955.66;;;25.91;37.24
78073;BME280;67281;48.770;11.440;2023-07-20T13:08:32;96958.75;;;25.94;38.07
78073;BME280;67281;48.770;11.440;2023-07-20T13:10:59;96955.44;;;25.92;38.28